sensor_id;sensor_type;location;lat;lon;timestamp;temperature;humidity
1578;DHT22;57623;53.608;10.004;2023-01-19T00:00:25;2.00;99.90
1578;DHT22;57623;53.608;10.004;2023-01-19T00:02:54;2.00;99.90
1578;DHT22;57623;53.608;10.004;2023-01-19T00:05:25;2.00;99.90
1578;DHT22;57623;53.608;10.004;2023-01-19T00:07:53;2.00;99.90
1578;DHT22;57623;53.608;10.004;2023-01-19T00:10:24;2.00;99.90
1578;DHT22;57623;53.608;10.004;2023-01-19T00:12:54;2.00;99.90
1578;DHT22;57623;53.608;10.004;2023-01-19T00:15:35;2.10;99.90
1578;DHT22;57623;53.608;10.004;2023-01-19T00:18:05;2.00;99.90
1578;DHT22;57623;53.608;10.004;2023-01-19T00:20:44;2.10;99.90
1578;DHT22;57623;53.608;10.004;2023-01-19T00:23:13;2.10;99.90
1578;DHT22;57623;53.608;10.004;2023-01-19T00:25:43;2.10;99.90
1578;DHT22;57623;53.608;10.004;2023-01-19T00:28:22;2.10;99.90
1578;DHT22;57623;53.608;10.004;2023-01-19T00:30:53;2.10;99.90
1578;DHT22;57623;53.608;10.004;2023-01-19T00:33:22;2.20;99.90
1578;DHT22;57623;53.608;10.004;2023-01-19T00:35:57;2.10;99.90
1578;DHT22;57623;53.608;10.004;2023-01-19T00:38:27;2.10;99.90
1578;DHT22;57623;53.608;10.004;2023-01-19T00:41:00;2.20;99.90
1578;DHT22;57623;53.608;10.004;2023-01-19T00:43:30;2.20;99.90
1578;DHT22;57623;53.608;10.004;2023-01-19T00:46:16;2.20;99.90
1578;DHT22;57623;53.608;10.004;2023-01-19T00:48:44;2.20;99.90
1578;DHT22;57623;53.608;10.004;2023-01-19T00:51:22;2.20;99.90
1578;DHT22;57623;53.608;10.004;2023-01-19T00:53:56;2.20;99.90
1578;DHT22;57623;53.608;10.004;2023-01-19T00:56:25;2.30;99.90
1578;DHT22;57623;53.608;10.004;2023-01-19T00:58:53;2.30;99.90
1578;DHT22;57623;53.608;10.004;2023-01-19T01:01:23;2.30;99.90
1578;DHT22;57623;53.608;10.004;2023-01-19T01:04:13;2.30;99.90
1578;DHT22;57623;53.608;10.004;2023-01-19T01:06:43;2.30;99.90
1578;DHT22;57623;53.608;10.004;2023-01-19T01:09:16;2.30;99.90
1578;DHT22;57623;53.608;10.004;2023-01-19T01:11:44;2.30;99.90
1578;DHT22;57623;53.608;10.004;2023-01-19T01:14:18;2.30;99.90
1578;DHT22;57623;53.608;10.004;2023-01-19T01:16:54;2.40;99.90
1578;DHT22;57623;53.608;10.004;2023-01-19T01:19:25;2.40;99.90
1578;DHT22;57623;53.608;10.004;2023-01-19T01:22:04;2.40;99.90
1578;DHT22;57623;53.608;10.004;2023-01-19T01:24:33;2.40;99.90
1578;DHT22;57623;53.608;10.004;2023-01-19T01:27:06;2.40;99.90
1578;DHT22;57623;53.608;10.004;2023-01-19T01:29:36;2.40;99.90
1578;DHT22;57623;53.608;10.004;2023-01-19T01:32:11;2.40;99.90
1578;DHT22;57623;53.608;10.004;2023-01-19T01:34:42;2.50;99.90
1578;DHT22;57623;53.608;10.004;2023-01-19T01:37:32;2.40;99.90
1578;DHT22;57623;53.608;10.004;2023-01-19T01:40:03;2.50;99.90
1578;DHT22;57623;53.608;10.004;2023-01-19T01:42:37;2.50;99.90
1578;DHT22;57623;53.608;10.004;2023-01-19T01:45:22;2.50;99.90
1578;DHT22;57623;53.608;10.004;2023-01-19T01:47:54;2.50;99.90
1578;DHT22;57623;53.608;10.004;2023-01-19T01:50:28;2.50;99.90
1578;DHT22;57623;53.608;10.004;2023-01-19T01:53:10;2.50;99.90
1578;DHT22;57623;53.608;10.004;2023-01-19T01:55:46;2.50;99.90
1578;DHT22;57623;53.608;10.004;2023-01-19T01:58:21;2.50;99.90
1578;DHT22;57623;53.608;10.004;2023-01-19T02:00:58;2.50;99.90
1578;DHT22;57623;53.608;10.004;2023-01-19T02:03:47;2.50;99.90
1578;DHT22;57623;53.608;10.004;2023-01-19T02:06:15;2.50;99.90
1578;DHT22;57623;53.608;10.004;2023-01-19T02:08:56;2.60;99.90
1578;DHT22;57623;53.608;10.004;2023-01-19T02:11:45;2.60;99.90
1578;DHT22;57623;53.608;10.004;2023-01-19T02:14:33;2.60;99.90
1578;DHT22;57623;53.608;10.004;2023-01-19T02:17:06;2.60;99.90
1578;DHT22;57623;53.608;10.004;2023-01-19T02:19:40;2.60;99.90
1578;DHT22;57623;53.608;10.004;2023-01-19T02:22:14;2.60;99.90
1578;DHT22;57623;53.608;10.004;2023-01-19T02:24:52;2.60;99.90
1578;DHT22;57623;53.608;10.004;2023-01-19T02:27:27;2.60;99.90
1578;DHT22;57623;53.608;10.004;2023-01-19T02:29:59;2.70;99.90
1578;DHT22;57623;53.608;10.004;2023-01-19T02:32:29;2.60;99.90
1578;DHT22;57623;53.608;10.004;2023-01-19T02:35:05;2.60;99.90
1578;DHT22;57623;53.608;10.004;2023-01-19T02:37:40;2.60;99.90
1578;DHT22;57623;53.608;10.004;2023-01-19T02:40:14;2.70;99.90
1578;DHT22;57623;53.608;10.004;2023-01-19T02:42:58;2.70;99.90
1578;DHT22;57623;53.608;10.004;2023-01-19T02:45:42;2.70;99.90
1578;DHT22;57623;53.608;10.004;2023-01-19T02:48:30;2.70;99.90
1578;DHT22;57623;53.608;10.004;2023-01-19T02:51:14;2.70;99.90
1578;DHT22;57623;53.608;10.004;2023-01-19T02:54:29;2.70;99.90
1578;DHT22;57623;53.608;10.004;2023-01-19T02:57:23;2.80;99.90
1578;DHT22;57623;53.608;10.004;2023-01-19T03:00:16;2.80;99.90
1578;DHT22;57623;53.608;10.004;2023-01-19T03:02:58;2.70;99.90
1578;DHT22;57623;53.608;10.004;2023-01-19T03:05:33;2.70;99.90
1578;DHT22;57623;53.608;10.004;2023-01-19T03:08:13;2.80;99.90
1578;DHT22;57623;53.608;10.004;2023-01-19T03:10:50;2.80;99.90
1578;DHT22;57623;53.608;10.004;2023-01-19T03:13:28;2.80;99.90
1578;DHT22;57623;53.608;10.004;2023-01-19T03:16:02;2.80;99.90
1578;DHT22;57623;53.608;10.004;2023-01-19T03:18:37;2.80;99.90
1578;DHT22;57623;53.608;10.004;2023-01-19T03:21:09;2.80;99.90
1578;DHT22;57623;53.608;10.004;2023-01-19T03:23:44;2.80;99.90
1578;DHT22;57623;53.608;10.004;2023-01-19T03:26:18;2.70;99.90
1578;DHT22;57623;53.608;10.004;2023-01-19T03:28:50;2.70;99.90
1578;DHT22;57623;53.608;10.004;2023-01-19T03:31:23;2.70;99.90
1578;DHT22;57623;53.608;10.004;2023-01-19T03:33:54;2.80;99.90
1578;DHT22;57623;53.608;10.004;2023-01-19T03:36:35;2.80;99.90
1578;DHT22;57623;53.608;10.004;2023-01-19T03:39:07;2.80;99.90
1578;DHT22;57623;53.608;10.004;2023-01-19T03:41:37;2.80;99.90
1578;DHT22;57623;53.608;10.004;2023-01-19T03:44:21;2.80;99.90
1578;DHT22;57623;53.608;10.004;2023-01-19T03:46:53;2.80;99.90
1578;DHT22;57623;53.608;10.004;2023-01-19T03:49:25;2.80;99.90
1578;DHT22;57623;53.608;10.004;2023-01-19T03:51:56;2.80;99.90
1578;DHT22;57623;53.608;10.004;2023-01-19T03:54:25;2.80;99.90
1578;DHT22;57623;53.608;10.004;2023-01-19T03:56:55;2.80;99.90
1578;DHT22;57623;53.608;10.004;2023-01-19T03:59:24;2.80;99.90
1578;DHT22;57623;53.608;10.004;2023-01-19T04:01:54;2.80;99.90
1578;DHT22;57623;53.608;10.004;2023-01-19T04:04:24;2.80;99.90
1578;DHT22;57623;53.608;10.004;2023-01-19T04:06:54;2.80;99.90
1578;DHT22;57623;53.608;10.004;2023-01-19T04:09:29;2.80;99.90
1578;DHT22;57623;53.608;10.004;2023-01-19T04:11:59;2.80;99.90
1578;DHT22;57623;53.608;10.004;2023-01-19T04:14:30;2.80;99.90
1578;DHT22;57623;53.608;10.004;2023-01-19T04:17:00;2.80;99.90
1578;DHT22;57623;53.608;10.004;2023-01-19T04:19:30;2.70;99.90
1578;DHT22;57623;53.608;10.004;2023-01-19T04:22:05;2.70;99.90
1578;DHT22;57623;53.608;10.004;2023-01-19T04:24:36;2.70;99.90
1578;DHT22;57623;53.608;10.004;2023-01-19T04:27:06;2.70;99.90
1578;DHT22;57623;53.608;10.004;2023-01-19T04:29:38;2.80;99.90
1578;DHT22;57623;53.608;10.004;2023-01-19T04:32:09;2.80;99.90
1578;DHT22;57623;53.608;10.004;2023-01-19T04:34:38;2.80;99.90
1578;DHT22;57623;53.608;10.004;2023-01-19T04:37:08;2.80;99.90
1578;DHT22;57623;53.608;10.004;2023-01-19T04:39:47;2.80;99.90
1578;DHT22;57623;53.608;10.004;2023-01-19T04:42:16;2.80;99.90
1578;DHT22;57623;53.608;10.004;2023-01-19T04:44:47;2.80;99.90
1578;DHT22;57623;53.608;10.004;2023-01-19T04:47:23;2.70;99.90
1578;DHT22;57623;53.608;10.004;2023-01-19T04:49:55;2.80;99.90
1578;DHT22;57623;53.608;10.004;2023-01-19T04:52:24;2.80;99.90
1578;DHT22;57623;53.608;10.004;2023-01-19T04:54:58;2.80;99.90
1578;DHT22;57623;53.608;10.004;2023-01-19T04:57:30;2.80;99.90
1578;DHT22;57623;53.608;10.004;2023-01-19T05:02:48;2.80;99.90
1578;DHT22;57623;53.608;10.004;2023-01-19T05:05:17;2.80;99.90
1578;DHT22;57623;53.608;10.004;2023-01-19T05:07:44;2.80;99.90
1578;DHT22;57623;53.608;10.004;2023-01-19T05:10:15;2.80;99.90
1578;DHT22;57623;53.608;10.004;2023-01-19T05:12:47;2.90;99.90
1578;DHT22;57623;53.608;10.004;2023-01-19T05:15:22;2.80;99.90
1578;DHT22;57623;53.608;10.004;2023-01-19T05:17:51;2.80;99.90
1578;DHT22;57623;53.608;10.004;2023-01-19T05:20:31;2.90;99.90
1578;DHT22;57623;53.608;10.004;2023-01-19T05:23:13;2.90;99.90
1578;DHT22;57623;53.608;10.004;2023-01-19T05:25:42;2.90;99.90
1578;DHT22;57623;53.608;10.004;2023-01-19T05:28:15;2.90;99.90
1578;DHT22;57623;53.608;10.004;2023-01-19T05:30:55;2.90;99.90
1578;DHT22;57623;53.608;10.004;2023-01-19T05:33:23;2.90;99.90
1578;DHT22;57623;53.608;10.004;2023-01-19T05:35:55;2.90;99.90
1578;DHT22;57623;53.608;10.004;2023-01-19T05:38:38;2.90;99.90
1578;DHT22;57623;53.608;10.004;2023-01-19T05:41:06;2.90;99.90
1578;DHT22;57623;53.608;10.004;2023-01-19T05:43:34;2.80;99.90
1578;DHT22;57623;53.608;10.004;2023-01-19T05:46:08;2.80;99.90
1578;DHT22;57623;53.608;10.004;2023-01-19T05:48:39;2.80;99.90
1578;DHT22;57623;53.608;10.004;2023-01-19T05:51:10;2.80;99.90
1578;DHT22;57623;53.608;10.004;2023-01-19T05:53:40;2.80;99.90
1578;DHT22;57623;53.608;10.004;2023-01-19T05:56:10;2.80;99.90
1578;DHT22;57623;53.608;10.004;2023-01-19T05:58:41;2.80;99.90
1578;DHT22;57623;53.608;10.004;2023-01-19T06:01:13;2.80;99.90
1578;DHT22;57623;53.608;10.004;2023-01-19T06:03:41;2.80;99.90
1578;DHT22;57623;53.608;10.004;2023-01-19T06:06:11;2.80;99.90
1578;DHT22;57623;53.608;10.004;2023-01-19T06:08:46;2.80;99.90
1578;DHT22;57623;53.608;10.004;2023-01-19T06:11:14;2.90;99.90
1578;DHT22;57623;53.608;10.004;2023-01-19T06:13:43;2.80;99.90
1578;DHT22;57623;53.608;10.004;2023-01-19T06:16:13;2.80;99.90
1578;DHT22;57623;53.608;10.004;2023-01-19T06:18:46;2.80;99.90
1578;DHT22;57623;53.608;10.004;2023-01-19T06:21:17;2.90;99.90
1578;DHT22;57623;53.608;10.004;2023-01-19T06:23:48;2.80;99.90
1578;DHT22;57623;53.608;10.004;2023-01-19T06:26:16;2.80;99.90
1578;DHT22;57623;53.608;10.004;2023-01-19T06:28:46;2.80;99.90
1578;DHT22;57623;53.608;10.004;2023-01-19T06:31:18;2.80;99.90
1578;DHT22;57623;53.608;10.004;2023-01-19T06:33:47;2.80;99.90
1578;DHT22;57623;53.608;10.004;2023-01-19T06:36:19;2.80;99.90
1578;DHT22;57623;53.608;10.004;2023-01-19T06:38:47;2.80;99.90
1578;DHT22;57623;53.608;10.004;2023-01-19T06:41:23;2.80;99.90
1578;DHT22;57623;53.608;10.004;2023-01-19T06:44:03;2.80;99.90
1578;DHT22;57623;53.608;10.004;2023-01-19T06:46:38;2.80;99.90
1578;DHT22;57623;53.608;10.004;2023-01-19T06:49:09;2.80;99.90
1578;DHT22;57623;53.608;10.004;2023-01-19T06:51:37;2.80;99.90
1578;DHT22;57623;53.608;10.004;2023-01-19T06:54:07;2.80;99.90
1578;DHT22;57623;53.608;10.004;2023-01-19T06:56:42;2.80;99.90
1578;DHT22;57623;53.608;10.004;2023-01-19T06:59:10;2.80;99.90
1578;DHT22;57623;53.608;10.004;2023-01-19T07:01:39;2.80;99.90
1578;DHT22;57623;53.608;10.004;2023-01-19T07:04:08;2.80;99.90
1578;DHT22;57623;53.608;10.004;2023-01-19T07:06:41;2.80;99.90
1578;DHT22;57623;53.608;10.004;2023-01-19T07:09:09;2.80;99.90
1578;DHT22;57623;53.608;10.004;2023-01-19T07:11:42;2.80;99.90
1578;DHT22;57623;53.608;10.004;2023-01-19T07:14:20;2.80;99.90
1578;DHT22;57623;53.608;10.004;2023-01-19T07:16:53;2.80;99.90
1578;DHT22;57623;53.608;10.004;2023-01-19T07:19:23;2.90;99.90
1578;DHT22;57623;53.608;10.004;2023-01-19T07:21:55;2.80;99.90
1578;DHT22;57623;53.608;10.004;2023-01-19T07:24:24;2.80;99.90
1578;DHT22;57623;53.608;10.004;2023-01-19T07:26:55;2.90;99.90
1578;DHT22;57623;53.608;10.004;2023-01-19T07:29:24;2.90;99.90
1578;DHT22;57623;53.608;10.004;2023-01-19T07:31:57;2.90;99.90
1578;DHT22;57623;53.608;10.004;2023-01-19T07:34:29;2.90;99.90
1578;DHT22;57623;53.608;10.004;2023-01-19T07:37:00;2.90;99.90
1578;DHT22;57623;53.608;10.004;2023-01-19T07:39:34;2.90;99.90
1578;DHT22;57623;53.608;10.004;2023-01-19T07:42:09;2.90;99.90
1578;DHT22;57623;53.608;10.004;2023-01-19T07:44:38;2.90;99.90
1578;DHT22;57623;53.608;10.004;2023-01-19T07:47:12;2.90;99.90
1578;DHT22;57623;53.608;10.004;2023-01-19T07:49:39;2.90;99.90
1578;DHT22;57623;53.608;10.004;2023-01-19T07:52:11;2.90;99.90
1578;DHT22;57623;53.608;10.004;2023-01-19T07:55:00;2.90;99.90
1578;DHT22;57623;53.608;10.004;2023-01-19T07:57:29;2.90;99.90
1578;DHT22;57623;53.608;10.004;2023-01-19T07:59:57;2.80;99.90
1578;DHT22;57623;53.608;10.004;2023-01-19T08:02:30;2.90;99.90
1578;DHT22;57623;53.608;10.004;2023-01-19T08:05:03;2.90;99.90
1578;DHT22;57623;53.608;10.004;2023-01-19T08:07:32;2.90;99.90
1578;DHT22;57623;53.608;10.004;2023-01-19T08:10:06;2.90;99.90
1578;DHT22;57623;53.608;10.004;2023-01-19T08:12:37;2.90;99.90
1578;DHT22;57623;53.608;10.004;2023-01-19T08:15:08;2.90;99.90
1578;DHT22;57623;53.608;10.004;2023-01-19T08:17:41;2.90;99.90
1578;DHT22;57623;53.608;10.004;2023-01-19T08:20:15;3.00;99.90
1578;DHT22;57623;53.608;10.004;2023-01-19T08:22:46;3.00;99.90
1578;DHT22;57623;53.608;10.004;2023-01-19T08:25:14;3.00;99.90
1578;DHT22;57623;53.608;10.004;2023-01-19T08:27:47;3.00;99.90
1578;DHT22;57623;53.608;10.004;2023-01-19T08:30:25;3.00;99.90
1578;DHT22;57623;53.608;10.004;2023-01-19T08:32:59;3.00;99.90
1578;DHT22;57623;53.608;10.004;2023-01-19T08:35:35;3.00;99.90
1578;DHT22;57623;53.608;10.004;2023-01-19T08:38:05;3.00;99.90
1578;DHT22;57623;53.608;10.004;2023-01-19T08:40:37;3.10;99.90
1578;DHT22;57623;53.608;10.004;2023-01-19T08:43:11;3.10;99.90
1578;DHT22;57623;53.608;10.004;2023-01-19T08:45:49;3.00;99.90
1578;DHT22;57623;53.608;10.004;2023-01-19T08:48:23;3.10;99.90
1578;DHT22;57623;53.608;10.004;2023-01-19T08:50:55;3.20;99.90
1578;DHT22;57623;53.608;10.004;2023-01-19T08:53:27;3.20;99.90
1578;DHT22;57623;53.608;10.004;2023-01-19T08:56:02;3.20;99.90
1578;DHT22;57623;53.608;10.004;2023-01-19T08:58:35;3.20;99.90
1578;DHT22;57623;53.608;10.004;2023-01-19T09:01:11;3.30;99.90
1578;DHT22;57623;53.608;10.004;2023-01-19T09:03:51;3.30;99.90
1578;DHT22;57623;53.608;10.004;2023-01-19T09:06:26;3.30;99.90
1578;DHT22;57623;53.608;10.004;2023-01-19T09:08:54;3.30;99.90
1578;DHT22;57623;53.608;10.004;2023-01-19T09:11:27;3.40;99.90
1578;DHT22;57623;53.608;10.004;2023-01-19T09:13:57;3.40;99.90
1578;DHT22;57623;53.608;10.004;2023-01-19T09:16:26;3.40;99.90
1578;DHT22;57623;53.608;10.004;2023-01-19T09:19:00;3.40;99.90
1578;DHT22;57623;53.608;10.004;2023-01-19T09:21:28;3.40;99.90
1578;DHT22;57623;53.608;10.004;2023-01-19T09:23:58;3.40;99.90
1578;DHT22;57623;53.608;10.004;2023-01-19T09:26:26;3.40;99.90
1578;DHT22;57623;53.608;10.004;2023-01-19T09:28:54;3.40;99.90
1578;DHT22;57623;53.608;10.004;2023-01-19T09:31:22;3.30;99.90
1578;DHT22;57623;53.608;10.004;2023-01-19T09:33:50;3.30;99.90
1578;DHT22;57623;53.608;10.004;2023-01-19T09:36:28;3.30;99.90
1578;DHT22;57623;53.608;10.004;2023-01-19T09:39:03;3.30;99.90
1578;DHT22;57623;53.608;10.004;2023-01-19T09:41:35;3.30;99.90
1578;DHT22;57623;53.608;10.004;2023-01-19T09:44:05;3.30;99.90
1578;DHT22;57623;53.608;10.004;2023-01-19T09:46:40;3.30;99.90
1578;DHT22;57623;53.608;10.004;2023-01-19T09:49:13;3.30;99.90
1578;DHT22;57623;53.608;10.004;2023-01-19T09:51:48;3.40;99.90
1578;DHT22;57623;53.608;10.004;2023-01-19T09:54:18;3.40;99.90
1578;DHT22;57623;53.608;10.004;2023-01-19T09:56:48;3.40;99.90
1578;DHT22;57623;53.608;10.004;2023-01-19T09:59:20;3.50;99.90
1578;DHT22;57623;53.608;10.004;2023-01-19T10:02:14;3.50;99.90
1578;DHT22;57623;53.608;10.004;2023-01-19T10:04:57;3.60;99.90
1578;DHT22;57623;53.608;10.004;2023-01-19T10:07:43;3.60;99.90
1578;DHT22;57623;53.608;10.004;2023-01-19T10:10:22;3.60;99.90
1578;DHT22;57623;53.608;10.004;2023-01-19T10:13:03;3.60;99.90
1578;DHT22;57623;53.608;10.004;2023-01-19T10:15:42;3.60;99.90
1578;DHT22;57623;53.608;10.004;2023-01-19T10:18:16;3.60;99.90
1578;DHT22;57623;53.608;10.004;2023-01-19T10:20:54;3.60;99.90
1578;DHT22;57623;53.608;10.004;2023-01-19T10:23:37;3.60;99.90
1578;DHT22;57623;53.608;10.004;2023-01-19T10:26:10;3.60;99.90
1578;DHT22;57623;53.608;10.004;2023-01-19T10:28:42;3.60;99.90
1578;DHT22;57623;53.608;10.004;2023-01-19T10:31:21;3.60;99.90
1578;DHT22;57623;53.608;10.004;2023-01-19T10:33:57;3.70;99.90
1578;DHT22;57623;53.608;10.004;2023-01-19T10:36:36;3.80;99.90
1578;DHT22;57623;53.608;10.004;2023-01-19T10:39:11;3.80;99.90
1578;DHT22;57623;53.608;10.004;2023-01-19T10:41:48;3.80;99.90
1578;DHT22;57623;53.608;10.004;2023-01-19T10:44:28;3.80;99.90
1578;DHT22;57623;53.608;10.004;2023-01-19T10:47:14;3.80;99.90
1578;DHT22;57623;53.608;10.004;2023-01-19T10:49:43;3.80;99.90
1578;DHT22;57623;53.608;10.004;2023-01-19T10:52:25;3.70;99.90
1578;DHT22;57623;53.608;10.004;2023-01-19T10:55:05;3.70;99.90
1578;DHT22;57623;53.608;10.004;2023-01-19T10:57:37;3.70;99.90
1578;DHT22;57623;53.608;10.004;2023-01-19T11:00:29;3.60;99.90
1578;DHT22;57623;53.608;10.004;2023-01-19T11:02:58;3.70;99.90
1578;DHT22;57623;53.608;10.004;2023-01-19T11:05:32;3.70;99.90
1578;DHT22;57623;53.608;10.004;2023-01-19T11:08:11;3.70;99.90
1578;DHT22;57623;53.608;10.004;2023-01-19T11:10:57;3.70;99.90
1578;DHT22;57623;53.608;10.004;2023-01-19T11:13:42;3.70;99.90
1578;DHT22;57623;53.608;10.004;2023-01-19T11:16:19;3.70;99.90
1578;DHT22;57623;53.608;10.004;2023-01-19T11:18:51;3.70;99.90
1578;DHT22;57623;53.608;10.004;2023-01-19T11:21:25;3.70;99.90
1578;DHT22;57623;53.608;10.004;2023-01-19T11:23:56;3.70;99.90
1578;DHT22;57623;53.608;10.004;2023-01-19T11:26:38;3.70;99.90
1578;DHT22;57623;53.608;10.004;2023-01-19T11:29:19;3.70;99.90
1578;DHT22;57623;53.608;10.004;2023-01-19T11:31:48;3.70;99.90
1578;DHT22;57623;53.608;10.004;2023-01-19T11:34:30;3.70;99.90
1578;DHT22;57623;53.608;10.004;2023-01-19T11:37:04;3.70;99.90
1578;DHT22;57623;53.608;10.004;2023-01-19T11:39:45;3.70;99.90
1578;DHT22;57623;53.608;10.004;2023-01-19T11:42:23;3.80;99.90
1578;DHT22;57623;53.608;10.004;2023-01-19T11:44:58;3.80;99.90
1578;DHT22;57623;53.608;10.004;2023-01-19T11:47:33;3.80;99.90
1578;DHT22;57623;53.608;10.004;2023-01-19T18:09:59;3.30;99.90
1578;DHT22;57623;53.608;10.004;2023-01-19T18:12:27;3.30;99.90
1578;DHT22;57623;53.608;10.004;2023-01-19T18:14:57;3.30;99.90
1578;DHT22;57623;53.608;10.004;2023-01-19T18:17:25;3.30;99.90
1578;DHT22;57623;53.608;10.004;2023-01-19T18:19:52;3.20;99.90
1578;DHT22;57623;53.608;10.004;2023-01-19T18:22:20;3.20;99.90
1578;DHT22;57623;53.608;10.004;2023-01-19T18:24:48;3.20;99.90
1578;DHT22;57623;53.608;10.004;2023-01-19T18:27:18;3.20;99.90
1578;DHT22;57623;53.608;10.004;2023-01-19T18:29:47;3.20;99.90
1578;DHT22;57623;53.608;10.004;2023-01-19T18:32:15;3.20;99.90
1578;DHT22;57623;53.608;10.004;2023-01-19T18:34:43;3.10;99.90
1578;DHT22;57623;53.608;10.004;2023-01-19T18:37:11;3.10;99.90
1578;DHT22;57623;53.608;10.004;2023-01-19T18:39:39;3.10;99.90
1578;DHT22;57623;53.608;10.004;2023-01-19T18:42:07;3.10;99.90
1578;DHT22;57623;53.608;10.004;2023-01-19T18:44:37;3.10;99.90
1578;DHT22;57623;53.608;10.004;2023-01-19T18:47:05;3.10;99.90
1578;DHT22;57623;53.608;10.004;2023-01-19T18:49:33;3.10;99.90
1578;DHT22;57623;53.608;10.004;2023-01-19T18:52:01;3.10;99.90
1578;DHT22;57623;53.608;10.004;2023-01-19T18:54:29;3.10;99.90
1578;DHT22;57623;53.608;10.004;2023-01-19T18:56:59;3.00;99.90
1578;DHT22;57623;53.608;10.004;2023-01-19T18:59:27;3.00;99.90
1578;DHT22;57623;53.608;10.004;2023-01-19T19:01:56;3.10;99.90
1578;DHT22;57623;53.608;10.004;2023-01-19T19:04:27;3.00;99.90
1578;DHT22;57623;53.608;10.004;2023-01-19T19:06:55;3.00;99.90
1578;DHT22;57623;53.608;10.004;2023-01-19T19:09:22;3.00;99.90
1578;DHT22;57623;53.608;10.004;2023-01-19T19:11:50;3.00;99.90
1578;DHT22;57623;53.608;10.004;2023-01-19T19:14:18;3.00;99.90
1578;DHT22;57623;53.608;10.004;2023-01-19T19:16:46;3.00;99.90
1578;DHT22;57623;53.608;10.004;2023-01-19T19:19:16;3.00;99.90
1578;DHT22;57623;53.608;10.004;2023-01-19T19:21:44;2.90;99.90
1578;DHT22;57623;53.608;10.004;2023-01-19T19:24:12;2.90;99.90
1578;DHT22;57623;53.608;10.004;2023-01-19T19:26:40;2.90;99.90
1578;DHT22;57623;53.608;10.004;2023-01-19T19:29:08;2.90;99.90
1578;DHT22;57623;53.608;10.004;2023-01-19T19:31:37;2.90;99.90
1578;DHT22;57623;53.608;10.004;2023-01-19T19:34:05;2.90;99.90
1578;DHT22;57623;53.608;10.004;2023-01-19T19:36:35;2.90;99.90
1578;DHT22;57623;53.608;10.004;2023-01-19T19:39:03;2.90;99.90
1578;DHT22;57623;53.608;10.004;2023-01-19T19:41:31;2.90;99.90
1578;DHT22;57623;53.608;10.004;2023-01-19T19:43:59;2.90;99.90
1578;DHT22;57623;53.608;10.004;2023-01-19T19:46:29;2.90;99.90
1578;DHT22;57623;53.608;10.004;2023-01-19T19:48:57;2.90;99.90
1578;DHT22;57623;53.608;10.004;2023-01-19T19:51:26;2.90;99.90
1578;DHT22;57623;53.608;10.004;2023-01-19T19:53:57;2.80;99.90
1578;DHT22;57623;53.608;10.004;2023-01-19T19:56:26;2.80;99.90
1578;DHT22;57623;53.608;10.004;2023-01-19T19:58:56;2.90;99.90
1578;DHT22;57623;53.608;10.004;2023-01-19T20:01:26;2.80;99.90
1578;DHT22;57623;53.608;10.004;2023-01-19T20:04:03;2.80;99.90
1578;DHT22;57623;53.608;10.004;2023-01-19T20:06:32;2.80;99.90
1578;DHT22;57623;53.608;10.004;2023-01-19T20:09:06;2.80;99.90
1578;DHT22;57623;53.608;10.004;2023-01-19T20:11:35;2.80;99.90
1578;DHT22;57623;53.608;10.004;2023-01-19T20:14:04;2.80;99.90
1578;DHT22;57623;53.608;10.004;2023-01-19T20:16:35;2.80;99.90
1578;DHT22;57623;53.608;10.004;2023-01-19T20:19:03;2.80;99.90
1578;DHT22;57623;53.608;10.004;2023-01-19T20:21:33;2.70;99.90
1578;DHT22;57623;53.608;10.004;2023-01-19T20:24:07;2.70;99.90
1578;DHT22;57623;53.608;10.004;2023-01-19T20:26:45;2.70;99.90
1578;DHT22;57623;53.608;10.004;2023-01-19T20:29:19;2.70;99.90
1578;DHT22;57623;53.608;10.004;2023-01-19T20:31:53;2.70;99.90
1578;DHT22;57623;53.608;10.004;2023-01-19T20:34:26;2.60;99.90
1578;DHT22;57623;53.608;10.004;2023-01-19T20:37:02;2.60;99.90
1578;DHT22;57623;53.608;10.004;2023-01-19T20:39:33;2.60;99.90
1578;DHT22;57623;53.608;10.004;2023-01-19T20:42:04;2.50;99.90
1578;DHT22;57623;53.608;10.004;2023-01-19T20:44:41;2.50;99.90
1578;DHT22;57623;53.608;10.004;2023-01-19T20:47:13;2.50;99.90
1578;DHT22;57623;53.608;10.004;2023-01-19T20:49:41;2.50;99.90
1578;DHT22;57623;53.608;10.004;2023-01-19T20:52:13;2.50;99.90
1578;DHT22;57623;53.608;10.004;2023-01-19T20:54:52;2.40;99.90
1578;DHT22;57623;53.608;10.004;2023-01-19T20:57:22;2.40;99.90
1578;DHT22;57623;53.608;10.004;2023-01-19T21:00:02;2.40;99.90
1578;DHT22;57623;53.608;10.004;2023-01-19T21:02:35;2.40;99.90
1578;DHT22;57623;53.608;10.004;2023-01-19T21:05:10;2.30;99.90
1578;DHT22;57623;53.608;10.004;2023-01-19T21:07:40;2.30;99.90
1578;DHT22;57623;53.608;10.004;2023-01-19T21:10:13;2.30;99.90
1578;DHT22;57623;53.608;10.004;2023-01-19T21:12:41;2.30;99.90
1578;DHT22;57623;53.608;10.004;2023-01-19T21:15:10;2.30;99.90
1578;DHT22;57623;53.608;10.004;2023-01-19T21:17:45;2.30;99.90
1578;DHT22;57623;53.608;10.004;2023-01-19T21:20:17;2.30;99.90
1578;DHT22;57623;53.608;10.004;2023-01-19T21:22:50;2.30;99.90
1578;DHT22;57623;53.608;10.004;2023-01-19T21:25:23;2.30;99.90
1578;DHT22;57623;53.608;10.004;2023-01-19T21:27:51;2.30;99.90
1578;DHT22;57623;53.608;10.004;2023-01-19T21:30:20;2.20;99.90
1578;DHT22;57623;53.608;10.004;2023-01-19T21:32:52;2.20;99.90
1578;DHT22;57623;53.608;10.004;2023-01-19T21:35:24;2.20;99.90
1578;DHT22;57623;53.608;10.004;2023-01-19T21:37:57;2.20;99.90
1578;DHT22;57623;53.608;10.004;2023-01-19T21:40:37;2.20;99.90
1578;DHT22;57623;53.608;10.004;2023-01-19T21:43:07;2.20;99.90
1578;DHT22;57623;53.608;10.004;2023-01-19T21:45:40;2.20;99.90
1578;DHT22;57623;53.608;10.004;2023-01-19T21:48:10;2.20;99.90
1578;DHT22;57623;53.608;10.004;2023-01-19T21:50:45;2.20;99.90
1578;DHT22;57623;53.608;10.004;2023-01-19T21:53:31;2.20;99.90
1578;DHT22;57623;53.608;10.004;2023-01-19T21:56:04;2.10;99.90
1578;DHT22;57623;53.608;10.004;2023-01-19T21:58:34;2.10;99.90
1578;DHT22;57623;53.608;10.004;2023-01-19T22:01:05;2.10;99.90
1578;DHT22;57623;53.608;10.004;2023-01-19T22:03:35;2.10;99.90
1578;DHT22;57623;53.608;10.004;2023-01-19T22:06:04;2.10;99.90
1578;DHT22;57623;53.608;10.004;2023-01-19T22:08:39;2.10;99.90
1578;DHT22;57623;53.608;10.004;2023-01-19T22:11:18;2.00;99.90
1578;DHT22;57623;53.608;10.004;2023-01-19T22:13:48;2.00;99.90
1578;DHT22;57623;53.608;10.004;2023-01-19T22:16:20;2.00;99.90
1578;DHT22;57623;53.608;10.004;2023-01-19T22:19:00;2.00;99.90
1578;DHT22;57623;53.608;10.004;2023-01-19T22:21:31;2.00;99.90
1578;DHT22;57623;53.608;10.004;2023-01-19T22:24:04;2.00;99.90
1578;DHT22;57623;53.608;10.004;2023-01-19T22:26:35;2.00;99.90
1578;DHT22;57623;53.608;10.004;2023-01-19T22:29:14;2.00;99.90
1578;DHT22;57623;53.608;10.004;2023-01-19T22:31:43;2.00;99.90
1578;DHT22;57623;53.608;10.004;2023-01-19T22:34:16;2.00;99.90
1578;DHT22;57623;53.608;10.004;2023-01-19T22:36:44;2.00;99.90
1578;DHT22;57623;53.608;10.004;2023-01-19T22:39:14;2.00;99.90
1578;DHT22;57623;53.608;10.004;2023-01-19T22:41:44;2.00;99.90
1578;DHT22;57623;53.608;10.004;2023-01-19T22:44:19;1.90;99.90